createdAt,value
2019-05-18T00:00:21.607Z,1019.30
2019-05-18T00:01:22.180Z,1019.27
2019-05-18T00:02:22.746Z,1019.21
2019-05-18T00:03:23.317Z,1019.22
2019-05-18T00:04:23.887Z,1019.20
2019-05-18T00:05:24.458Z,1019.29
2019-05-18T00:06:25.028Z,1019.29
2019-05-18T00:07:25.597Z,1019.30
2019-05-18T00:08:26.167Z,1019.38
2019-05-18T00:09:26.736Z,1019.29
2019-05-18T00:10:27.305Z,1019.26
2019-05-18T00:11:27.882Z,1019.44
2019-05-18T00:12:28.493Z,1019.25
2019-05-18T00:13:29.063Z,1019.32
2019-05-18T00:14:29.633Z,1019.31
2019-05-18T00:15:30.203Z,1019.27
2019-05-18T00:16:30.775Z,1019.32
2019-05-18T00:17:31.346Z,1019.29
2019-05-18T00:18:31.918Z,1019.26
2019-05-18T00:19:32.489Z,1019.26
2019-05-18T00:20:33.058Z,1019.26
2019-05-18T00:21:33.628Z,1019.25
2019-05-18T00:22:34.200Z,1019.22
2019-05-18T00:23:34.771Z,1019.22
2019-05-18T00:24:35.348Z,1019.19
2019-05-18T00:25:35.912Z,1019.27
2019-05-18T00:26:36.509Z,1019.23
2019-05-18T00:27:37.090Z,1019.26
2019-05-18T00:28:37.661Z,1019.26
2019-05-18T00:29:38.231Z,1019.21
2019-05-18T00:30:38.805Z,1019.25
2019-05-18T00:31:39.375Z,1019.28
2019-05-18T00:32:40.026Z,1019.30
2019-05-18T00:33:40.560Z,1019.19
2019-05-18T00:34:41.169Z,1019.22
2019-05-18T00:35:41.741Z,1019.18
2019-05-18T00:36:42.363Z,1019.21
2019-05-18T00:37:42.924Z,1019.26
2019-05-18T00:38:43.493Z,1019.20
2019-05-18T00:39:44.107Z,1019.23
2019-05-18T00:40:44.678Z,1019.27
2019-05-18T00:41:45.625Z,1019.21
2019-05-18T00:42:45.862Z,1019.22
2019-05-18T00:43:46.432Z,1019.20
2019-05-18T00:44:47.002Z,1019.23
2019-05-18T00:45:47.573Z,1019.23
2019-05-18T00:46:48.162Z,1019.25
2019-05-18T00:47:48.724Z,1019.20
2019-05-18T00:48:49.288Z,1019.28
2019-05-18T00:49:49.858Z,1019.22
2019-05-18T00:50:50.436Z,1019.17
2019-05-18T00:51:51.044Z,1019.19
2019-05-18T00:52:51.613Z,1019.22
2019-05-18T00:53:52.186Z,1019.20
2019-05-18T00:54:52.757Z,1019.22
2019-05-18T00:55:53.326Z,1019.17
2019-05-18T00:56:53.898Z,1019.12
2019-05-18T00:57:54.511Z,1019.17
2019-05-18T00:58:55.084Z,1019.09
2019-05-18T00:59:55.653Z,1019.06
2019-05-18T01:00:56.223Z,1019.12
2019-05-18T01:01:56.797Z,1019.02
2019-05-18T01:02:57.366Z,1019.03
2019-05-18T01:03:57.934Z,1018.98
2019-05-18T01:04:58.503Z,1018.98
2019-05-18T01:05:59.072Z,1018.91
2019-05-18T01:06:59.641Z,1018.95
2019-05-18T01:08:00.212Z,1019.03
2019-05-18T01:09:00.780Z,1019.05
2019-05-18T01:10:01.349Z,1018.94
2019-05-18T01:11:01.922Z,1018.91
2019-05-18T01:12:02.491Z,1018.95
2019-05-18T01:13:03.061Z,1018.94
2019-05-18T01:14:03.636Z,1018.84
2019-05-18T01:15:04.248Z,1018.88
2019-05-18T01:16:04.818Z,1018.87
2019-05-18T01:17:05.390Z,1018.83
2019-05-18T01:18:05.962Z,1018.77
2019-05-18T01:19:06.530Z,1018.77
2019-05-18T01:20:07.109Z,1018.76
2019-05-18T01:21:07.713Z,1018.68
2019-05-18T01:22:08.287Z,1018.74
2019-05-18T01:23:08.898Z,1018.66
2019-05-18T01:24:09.468Z,1018.68
2019-05-18T01:25:10.039Z,1018.55
2019-05-18T01:26:10.607Z,1018.65
2019-05-18T01:27:11.176Z,1018.61
2019-05-18T01:28:11.751Z,1018.55
2019-05-18T01:29:12.319Z,1018.57
2019-05-18T01:30:12.885Z,1018.61
2019-05-18T01:31:13.459Z,1018.54
2019-05-18T01:32:14.045Z,1018.60
2019-05-18T01:33:14.648Z,1018.59
2019-05-18T01:34:15.217Z,1018.60
2019-05-18T01:35:15.788Z,1018.62
2019-05-18T01:36:16.358Z,1018.60
2019-05-18T01:37:16.929Z,1018.48
2019-05-18T01:38:17.498Z,1018.59
2019-05-18T01:39:18.070Z,1018.59
2019-05-18T01:40:18.640Z,1018.52
2019-05-18T01:41:19.251Z,1018.52
2019-05-18T01:42:19.825Z,1018.52
2019-05-18T01:43:20.394Z,1018.54
2019-05-18T01:44:20.963Z,1018.52
2019-05-18T01:45:21.534Z,1018.44
2019-05-18T01:46:22.105Z,1018.49
2019-05-18T01:47:22.671Z,1018.47
2019-05-18T01:48:23.290Z,1018.45
2019-05-18T01:49:23.856Z,1018.52
2019-05-18T01:50:24.426Z,1018.48
2019-05-18T01:51:24.998Z,1018.50
2019-05-18T01:52:25.569Z,1018.43
2019-05-18T01:53:26.138Z,1018.46
2019-05-18T01:54:26.710Z,1018.45
2019-05-18T01:55:27.280Z,1018.43
2019-05-18T01:56:27.850Z,1018.36
2019-05-18T01:57:28.448Z,1018.43
2019-05-18T01:58:28.992Z,1018.43
2019-05-18T01:59:29.564Z,1018.43
2019-05-18T02:00:30.132Z,1018.41
2019-05-18T02:01:30.702Z,1018.41
2019-05-18T02:02:31.272Z,1018.45
2019-05-18T02:03:31.843Z,1018.46
2019-05-18T02:04:32.414Z,1018.41
2019-05-18T02:05:32.985Z,1018.46
2019-05-18T02:06:33.553Z,1018.46
2019-05-18T02:07:34.121Z,1018.42
2019-05-18T02:08:34.695Z,1018.50
2019-05-18T02:09:35.266Z,1018.47
2019-05-18T02:10:35.845Z,1018.43
2019-05-18T02:11:36.450Z,1018.41
2019-05-18T02:12:37.020Z,1018.41
2019-05-18T02:13:37.591Z,1018.38
2019-05-18T02:14:38.162Z,1018.36
2019-05-18T02:15:38.732Z,1018.43
2019-05-18T02:16:39.304Z,1018.37
2019-05-18T02:17:39.874Z,1018.32
2019-05-18T02:18:40.443Z,1018.34
2019-05-18T02:19:41.014Z,1018.24
2019-05-18T02:20:41.602Z,1018.27
2019-05-18T02:21:42.195Z,1018.30
2019-05-18T02:22:42.769Z,1018.29
2019-05-18T02:23:43.337Z,1018.31
2019-05-18T02:24:43.907Z,1018.34
2019-05-18T02:25:44.520Z,1018.38
2019-05-18T02:26:45.089Z,1018.26
2019-05-18T02:27:45.661Z,1018.31
2019-05-18T02:28:46.272Z,1018.30
2019-05-18T02:29:46.844Z,1018.39
2019-05-18T02:30:47.414Z,1018.35
2019-05-18T02:31:47.987Z,1018.25
2019-05-18T02:32:48.608Z,1018.22
2019-05-18T02:33:49.212Z,1018.26
2019-05-18T02:34:49.782Z,1018.27
2019-05-18T02:35:50.353Z,1018.23
2019-05-18T02:36:50.924Z,1018.28
2019-05-18T02:37:51.496Z,1018.23
2019-05-18T02:38:52.067Z,1018.26
2019-05-18T02:39:52.675Z,1018.18
2019-05-18T02:40:53.245Z,1018.30
2019-05-18T02:41:53.838Z,1018.15
2019-05-18T02:42:54.385Z,1018.18
2019-05-18T02:43:54.957Z,1018.24
2019-05-18T02:44:55.523Z,1018.21
2019-05-18T02:45:56.106Z,1018.22
2019-05-18T02:46:56.663Z,1018.15
2019-05-18T02:47:57.233Z,1018.21
2019-05-18T02:48:57.829Z,1018.20
2019-05-18T02:49:58.407Z,1018.21
2019-05-18T02:50:58.970Z,1018.17
2019-05-18T02:51:59.540Z,1018.21
2019-05-18T02:53:00.114Z,1018.19
2019-05-18T02:54:00.679Z,1018.21
2019-05-18T02:55:01.273Z,1018.15
2019-05-18T02:56:01.826Z,1018.18
2019-05-18T02:57:02.437Z,1018.11
2019-05-18T02:58:03.006Z,1018.18
2019-05-18T02:59:03.577Z,1018.12
2019-05-18T03:00:04.147Z,1018.08
2019-05-18T03:01:04.715Z,1018.17
2019-05-18T03:02:05.287Z,1018.21
2019-05-18T03:03:05.858Z,1018.12
2019-05-18T03:04:06.430Z,1018.18
2019-05-18T03:05:07.002Z,1018.21
2019-05-18T03:06:07.576Z,1018.09
2019-05-18T03:07:08.184Z,1018.10
2019-05-18T03:08:08.796Z,1018.12
2019-05-18T03:09:09.365Z,1018.20
2019-05-18T03:10:09.938Z,1018.15
2019-05-18T03:11:10.507Z,1018.11
2019-05-18T03:12:11.077Z,1018.19
2019-05-18T03:13:11.648Z,1018.14
2019-05-18T03:14:12.218Z,1018.19
2019-05-18T03:15:12.788Z,1018.16
2019-05-18T03:16:13.366Z,1018.16
2019-05-18T03:17:13.979Z,1018.17
2019-05-18T03:18:14.590Z,1018.16
2019-05-18T03:19:15.157Z,1018.12
2019-05-18T03:20:15.733Z,1018.22
2019-05-18T03:21:16.296Z,1018.21
2019-05-18T03:22:16.872Z,1018.18
2019-05-18T03:23:17.438Z,1018.21
2019-05-18T03:24:18.009Z,1018.23
2019-05-18T03:25:18.579Z,1018.26
2019-05-18T03:26:19.148Z,1018.17
2019-05-18T03:27:19.725Z,1018.20
2019-05-18T03:28:20.290Z,1018.23
2019-05-18T03:29:20.900Z,1018.15
2019-05-18T03:30:21.490Z,1018.19
2019-05-18T03:31:22.225Z,1018.11
2019-05-18T03:32:22.762Z,1018.08
2019-05-18T03:33:29.007Z,1018.13
2019-05-18T03:34:24.905Z,1018.12
2019-05-18T03:35:25.457Z,1018.11
2019-05-18T03:36:26.063Z,1018.17
2019-05-18T03:37:26.673Z,1018.15
2019-05-18T03:38:27.244Z,1018.17
2019-05-18T03:39:27.811Z,1018.10
2019-05-18T03:40:28.386Z,1018.12
2019-05-18T03:41:28.956Z,1018.12
2019-05-18T03:42:29.522Z,1018.10
2019-05-18T03:43:30.093Z,1018.13
2019-05-18T03:44:30.663Z,1018.08
2019-05-18T03:45:31.234Z,1018.07
2019-05-18T03:46:31.806Z,1018.03
2019-05-18T03:47:32.376Z,1018.07
2019-05-18T03:48:32.945Z,1018.14
2019-05-18T03:49:33.515Z,1017.97
2019-05-18T03:50:34.085Z,1018.02
2019-05-18T03:51:34.653Z,1018.00
2019-05-18T03:52:35.226Z,1017.95
2019-05-18T03:53:35.838Z,1018.02
2019-05-18T03:54:36.410Z,1017.95
2019-05-18T03:55:36.987Z,1017.97
2019-05-18T03:56:37.591Z,1017.96
2019-05-18T03:57:38.162Z,1017.91
2019-05-18T03:58:38.733Z,1017.93
2019-05-18T03:59:39.302Z,1017.91
2019-05-18T04:00:39.873Z,1017.93
2019-05-18T04:01:40.452Z,1017.95
2019-05-18T04:02:41.011Z,1017.95
2019-05-18T04:03:41.586Z,1017.92
2019-05-18T04:04:42.199Z,1017.89
2019-05-18T04:05:42.767Z,1017.91
2019-05-18T04:06:43.337Z,1017.88
2019-05-18T04:07:43.908Z,1017.91
2019-05-18T04:08:44.480Z,1017.96
2019-05-18T04:09:45.048Z,1017.93
2019-05-18T04:10:45.616Z,1017.85
2019-05-18T04:11:46.190Z,1017.90
2019-05-18T04:12:46.757Z,1017.89
2019-05-18T04:13:47.326Z,1017.89
2019-05-18T04:14:47.919Z,1017.92
2019-05-18T04:15:48.510Z,1017.85
2019-05-18T04:16:49.079Z,1017.85
2019-05-18T04:17:49.651Z,1017.97
2019-05-18T04:18:50.231Z,1017.85
2019-05-18T04:19:50.833Z,1017.94
2019-05-18T04:20:51.406Z,1017.96
2019-05-18T04:21:52.014Z,1017.99
2019-05-18T04:22:52.583Z,1017.99
2019-05-18T04:23:53.153Z,1017.96
2019-05-18T04:24:53.725Z,1018.07
2019-05-18T04:25:54.299Z,1018.06
2019-05-18T04:26:54.863Z,1018.01
2019-05-18T04:27:55.441Z,1018.11
2019-05-18T04:28:56.002Z,1018.13
2019-05-18T04:29:56.573Z,1018.10
2019-05-18T04:30:57.143Z,1018.10
2019-05-18T04:31:57.713Z,1018.08
2019-05-18T04:32:58.287Z,1018.02
2019-05-18T04:33:58.896Z,1018.02
2019-05-18T04:34:59.465Z,1017.96
2019-05-18T04:36:00.034Z,1017.95
2019-05-18T04:37:00.606Z,1017.91
2019-05-18T04:38:01.180Z,1017.95
2019-05-18T04:39:01.779Z,1018.04
2019-05-18T04:40:02.318Z,1018.06
2019-05-18T04:41:02.887Z,1018.15
2019-05-18T04:42:03.460Z,1018.14
2019-05-18T04:43:04.028Z,1018.12
2019-05-18T04:44:04.598Z,1018.16
2019-05-18T04:45:05.173Z,1018.18
2019-05-18T04:46:05.784Z,1018.16
2019-05-18T04:47:06.354Z,1018.07
2019-05-18T04:48:06.923Z,1018.10
2019-05-18T04:49:07.496Z,1018.12
2019-05-18T04:50:08.117Z,1018.11
2019-05-18T04:51:08.677Z,1018.21
2019-05-18T04:52:09.251Z,1018.23
2019-05-18T04:53:09.865Z,1018.14
2019-05-18T04:54:10.431Z,1018.11
2019-05-18T04:55:11.004Z,1018.14
2019-05-18T04:56:11.571Z,1018.18
2019-05-18T04:57:12.146Z,1018.18
2019-05-18T04:58:12.755Z,1018.19
2019-05-18T04:59:13.327Z,1018.21
2019-05-18T05:00:13.894Z,1018.09
2019-05-18T05:01:14.464Z,1018.07
2019-05-18T05:02:15.058Z,1018.01
2019-05-18T05:03:15.606Z,1018.03
2019-05-18T05:04:16.176Z,1018.10
2019-05-18T05:05:16.745Z,1018.00
2019-05-18T05:06:17.315Z,1018.02
2019-05-18T05:07:17.885Z,1018.11
2019-05-18T05:08:18.454Z,1017.98
2019-05-18T05:09:19.062Z,1018.04
2019-05-18T05:10:19.640Z,1018.01
2019-05-18T05:11:20.207Z,1018.02
2019-05-18T05:12:20.780Z,1017.94
2019-05-18T05:13:21.393Z,1017.97
2019-05-18T05:14:21.964Z,1017.97
2019-05-18T05:15:22.577Z,1018.01
2019-05-18T05:16:23.156Z,1017.96
2019-05-18T05:17:23.764Z,1017.94
2019-05-18T05:18:24.329Z,1017.95
2019-05-18T05:19:24.899Z,1018.06
2019-05-18T05:20:25.468Z,1018.04
2019-05-18T05:21:26.038Z,1017.94
2019-05-18T05:22:26.616Z,1018.03
2019-05-18T05:23:27.230Z,1018.05
2019-05-18T05:24:27.793Z,1018.01
2019-05-18T05:25:28.363Z,1018.05
2019-05-18T05:26:28.934Z,1017.97
2019-05-18T05:27:29.504Z,1018.02
2019-05-18T05:28:30.082Z,1017.95
2019-05-18T05:29:30.690Z,1018.02
2019-05-18T05:31:46.681Z,1017.99
2019-05-18T05:32:47.251Z,1018.00
2019-05-18T05:33:47.822Z,1018.06
2019-05-18T05:34:48.391Z,1018.04
2019-05-18T05:35:48.960Z,1018.04
2019-05-18T05:36:49.529Z,1018.02
2019-05-18T05:37:50.099Z,1018.00
2019-05-18T05:38:50.672Z,1018.00
2019-05-18T05:39:51.285Z,1018.04
2019-05-18T05:40:51.851Z,1018.04
2019-05-18T05:41:52.419Z,1018.00
2019-05-18T05:42:52.996Z,1018.06
2019-05-18T05:43:53.603Z,1017.99
2019-05-18T05:44:54.171Z,1017.90
2019-05-18T05:45:54.741Z,1017.99
2019-05-18T05:46:55.310Z,1017.98
2019-05-18T05:47:55.882Z,1018.04
2019-05-18T05:48:56.451Z,1018.00
2019-05-18T05:49:57.027Z,1018.07
2019-05-18T05:50:57.633Z,1018.04
2019-05-18T05:51:58.206Z,1018.07
2019-05-18T05:52:58.771Z,1018.08
2019-05-18T05:53:59.341Z,1018.10
2019-05-18T05:54:59.912Z,1018.07
2019-05-18T05:56:00.486Z,1018.10
2019-05-18T05:57:01.051Z,1018.09
2019-05-18T05:58:01.625Z,1018.05
2019-05-18T05:59:02.197Z,1018.12
2019-05-18T06:00:02.805Z,1018.05
2019-05-18T06:01:03.377Z,1018.04
2019-05-18T06:02:03.999Z,1018.13
2019-05-18T06:03:04.601Z,1018.04
2019-05-18T06:04:05.171Z,1018.10
2019-05-18T06:05:05.739Z,1018.03
2019-05-18T06:06:06.309Z,1018.10
2019-05-18T06:07:06.903Z,1018.05
2019-05-18T06:08:07.458Z,1018.10
2019-05-18T06:09:08.063Z,1018.08
2019-05-18T06:10:08.634Z,1018.17
2019-05-18T06:11:09.203Z,1018.13
2019-05-18T06:12:09.772Z,1018.14
2019-05-18T06:13:10.341Z,1018.17
2019-05-18T06:14:10.911Z,1018.24
2019-05-18T06:15:11.481Z,1018.24
2019-05-18T06:16:12.050Z,1018.21
2019-05-18T06:17:12.619Z,1018.18
2019-05-18T06:18:13.192Z,1018.26
2019-05-18T06:19:13.799Z,1018.29
2019-05-18T06:20:14.375Z,1018.27
2019-05-18T06:21:14.945Z,1018.31
2019-05-18T06:22:15.515Z,1018.25
2019-05-18T06:23:16.087Z,1018.26
2019-05-18T06:24:16.658Z,1018.27
2019-05-18T06:25:17.227Z,1018.18
2019-05-18T06:26:17.799Z,1018.20
2019-05-18T06:27:18.370Z,1018.15
2019-05-18T06:28:18.936Z,1018.18
2019-05-18T06:29:19.507Z,1018.24
2019-05-18T06:30:20.078Z,1018.34
2019-05-18T06:31:23.057Z,1018.29
2019-05-18T06:32:21.261Z,1018.28
2019-05-18T06:33:21.828Z,1018.36
2019-05-18T06:34:22.396Z,1018.27
2019-05-18T06:35:22.976Z,1018.37
2019-05-18T06:36:23.579Z,1018.35
2019-05-18T06:37:24.165Z,1018.36
2019-05-18T06:38:24.762Z,1018.34
2019-05-18T06:39:25.339Z,1018.27
2019-05-18T06:40:25.945Z,1018.37
2019-05-18T06:41:26.542Z,1018.34
2019-05-18T06:42:27.141Z,1018.39
2019-05-18T06:43:27.710Z,1018.36
2019-05-18T06:44:28.319Z,1018.37
2019-05-18T06:45:28.894Z,1018.37
2019-05-18T06:46:29.501Z,1018.49
2019-05-18T06:47:30.093Z,1018.37
2019-05-18T06:48:30.684Z,1018.39
2019-05-18T06:49:31.271Z,1018.28
2019-05-18T06:50:31.880Z,1018.40
2019-05-18T06:51:32.481Z,1018.41
2019-05-18T06:52:33.088Z,1018.42
2019-05-18T06:53:33.662Z,1018.35
2019-05-18T06:54:34.290Z,1018.37
2019-05-18T06:55:34.889Z,1018.35
2019-05-18T06:56:35.460Z,1018.38
2019-05-18T06:57:36.050Z,1018.32
2019-05-18T06:58:36.643Z,1018.30
2019-05-18T06:59:37.252Z,1018.28
2019-05-18T07:00:37.836Z,1018.29
2019-05-18T07:01:38.459Z,1018.30
2019-05-18T07:02:39.052Z,1018.30
2019-05-18T07:03:39.664Z,1018.28
2019-05-18T07:04:40.241Z,1018.36
2019-05-18T07:05:40.849Z,1018.30
2019-05-18T07:06:41.461Z,1018.26
2019-05-18T07:07:42.033Z,1018.26
2019-05-18T07:08:42.645Z,1018.20
2019-05-18T07:09:43.218Z,1018.26
2019-05-18T07:10:44.028Z,1018.32
2019-05-18T07:11:44.598Z,1018.30
2019-05-18T07:12:45.218Z,1018.31
2019-05-18T07:13:45.795Z,1018.39
2019-05-18T07:14:46.403Z,1018.29
2019-05-18T07:17:02.433Z,1018.34
2019-05-18T07:18:03.019Z,1018.31
2019-05-18T07:19:03.622Z,1018.31
2019-05-18T07:20:04.188Z,1018.31
2019-05-18T07:21:04.798Z,1018.25
2019-05-18T07:22:05.409Z,1018.30
2019-05-18T07:25:37.064Z,1018.30
2019-05-18T07:26:37.677Z,1018.37
2019-05-18T07:28:53.666Z,1018.32
2019-05-18T07:29:54.276Z,1018.37
2019-05-18T07:30:55.047Z,1018.43
2019-05-18T07:31:55.822Z,1018.44
2019-05-18T07:32:56.637Z,1018.44
2019-05-18T07:33:57.252Z,1018.48
2019-05-18T07:34:57.863Z,1018.44
2019-05-18T07:35:58.674Z,1018.44
2019-05-18T07:36:59.456Z,1018.49
2019-05-18T07:37:59.972Z,1018.49
2019-05-18T07:39:00.580Z,1018.46
2019-05-18T07:40:01.110Z,1018.49
2019-05-18T07:41:01.718Z,1018.51
2019-05-18T07:42:02.335Z,1018.50
2019-05-18T07:43:02.898Z,1018.50
2019-05-18T07:44:03.513Z,1018.53
2019-05-18T07:45:04.121Z,1018.58
2019-05-18T07:46:04.896Z,1018.49
2019-05-18T07:47:05.665Z,1018.49
2019-05-18T07:48:06.242Z,1018.52
2019-05-18T07:49:06.851Z,1018.50
2019-05-18T07:50:07.416Z,1018.50
2019-05-18T07:52:23.405Z,1018.53
2019-05-18T07:53:24.018Z,1018.52
2019-05-18T07:54:24.589Z,1018.52
2019-05-18T07:56:40.578Z,1018.53
2019-05-18T07:57:41.192Z,1018.49
2019-05-18T07:58:41.760Z,1018.55
2019-05-18T07:59:42.329Z,1018.62
2019-05-18T08:01:58.319Z,1018.50
2019-05-18T08:04:14.352Z,1018.61
2019-05-18T08:05:14.969Z,1018.68
2019-05-18T08:06:15.582Z,1018.66
2019-05-18T08:07:16.194Z,1018.69
2019-05-18T08:09:32.183Z,1018.64
2019-05-18T08:10:32.754Z,1018.57
2019-05-18T08:12:48.964Z,1018.57
2019-05-18T08:13:49.517Z,1018.57
2019-05-18T08:15:52.864Z,1018.57
2019-05-18T08:16:53.459Z,1018.60
2019-05-18T08:17:54.009Z,1018.66
2019-05-18T08:18:58.017Z,1018.63
2019-05-18T08:19:56.143Z,1018.58
2019-05-18T08:20:56.711Z,1018.61
2019-05-18T08:21:57.285Z,1018.63
2019-05-18T08:22:57.854Z,1018.55
2019-05-18T08:23:58.422Z,1018.52
2019-05-18T08:24:58.993Z,1018.56
2019-05-18T08:25:59.614Z,1018.61
2019-05-18T08:27:02.245Z,1018.57
2019-05-18T08:28:01.748Z,1018.61
2019-05-18T08:30:18.352Z,1018.60
2019-05-18T08:31:18.924Z,1018.70
2019-05-18T08:32:19.495Z,1018.67
2019-05-18T08:33:20.067Z,1018.65
2019-05-18T08:34:20.638Z,1018.65
2019-05-18T08:35:21.212Z,1018.65
2019-05-18T08:36:21.781Z,1018.59
2019-05-18T08:37:22.351Z,1018.62
2019-05-18T08:38:22.925Z,1018.68
2019-05-18T08:39:23.495Z,1018.67
2019-05-18T08:40:24.066Z,1018.65
2019-05-18T08:41:24.637Z,1018.69
2019-05-18T08:42:25.211Z,1018.68
2019-05-18T08:43:25.819Z,1018.74
2019-05-18T08:44:26.394Z,1018.73
2019-05-18T08:45:27.002Z,1018.79
2019-05-18T08:46:27.573Z,1018.77
2019-05-18T08:47:28.142Z,1018.77
2019-05-18T08:48:28.713Z,1018.83
2019-05-18T08:49:29.284Z,1018.80
2019-05-18T08:50:29.854Z,1018.77
2019-05-18T08:51:30.425Z,1018.82
2019-05-18T08:52:30.995Z,1018.85
2019-05-18T08:53:31.568Z,1018.79
2019-05-18T08:54:32.140Z,1018.82
2019-05-18T08:55:32.711Z,1018.85
2019-05-18T08:56:33.281Z,1018.80
2019-05-18T08:57:33.854Z,1018.78
2019-05-18T08:58:34.425Z,1018.81
2019-05-18T08:59:35.000Z,1018.81
2019-05-18T09:00:35.610Z,1018.88
2019-05-18T09:01:36.179Z,1018.78
2019-05-18T09:02:36.761Z,1018.86
2019-05-18T09:03:37.367Z,1018.87
2019-05-18T09:04:37.936Z,1018.84
2019-05-18T09:05:38.509Z,1018.87
2019-05-18T09:06:39.086Z,1018.90
2019-05-18T09:07:39.701Z,1018.91
2019-05-18T09:08:40.307Z,1018.94
2019-05-18T09:09:40.879Z,1018.91
2019-05-18T09:10:41.455Z,1018.91
2019-05-18T09:11:42.026Z,1018.82
2019-05-18T09:12:42.592Z,1019.01
2019-05-18T09:13:43.162Z,1019.00
2019-05-18T09:14:43.736Z,1019.03
2019-05-18T09:15:44.346Z,1019.03
2019-05-18T09:16:44.916Z,1018.98
2019-05-18T09:17:45.486Z,1018.98
2019-05-18T09:18:46.094Z,1018.99
2019-05-18T09:19:46.687Z,1018.94
2019-05-18T09:20:47.302Z,1018.97
2019-05-18T09:21:47.828Z,1019.03
2019-05-18T09:22:48.401Z,1018.97
2019-05-18T09:23:49.015Z,1018.90
2019-05-18T09:24:49.600Z,1018.93
2019-05-18T09:25:50.176Z,1018.92
2019-05-18T09:26:50.746Z,1018.95
2019-05-18T09:27:51.323Z,1018.95
2019-05-18T09:28:51.891Z,1018.89
2019-05-18T09:29:52.466Z,1018.89
2019-05-18T09:30:53.037Z,1018.94
2019-05-18T09:31:53.648Z,1018.93
2019-05-18T09:32:54.223Z,1018.91
2019-05-18T09:33:54.790Z,1018.93
2019-05-18T09:34:55.361Z,1018.98
2019-05-18T09:35:55.934Z,1018.95
2019-05-18T09:36:56.538Z,1018.88
2019-05-18T09:37:57.119Z,1018.96
2019-05-18T09:38:57.770Z,1018.96
2019-05-18T09:39:58.338Z,1018.97
2019-05-18T09:40:58.910Z,1019.01
2019-05-18T09:41:59.479Z,1019.06
2019-05-18T09:43:00.052Z,1019.04
2019-05-18T09:44:00.627Z,1019.02
2019-05-18T09:45:01.238Z,1018.98
2019-05-18T09:46:01.807Z,1019.02
2019-05-18T09:47:02.379Z,1018.99
2019-05-18T09:48:03.041Z,1019.03
2019-05-18T09:49:03.600Z,1018.94
2019-05-18T09:50:04.213Z,1018.98
2019-05-18T09:51:04.788Z,1019.03
2019-05-18T09:52:05.363Z,1019.02
2019-05-18T09:53:06.303Z,1019.08
2019-05-18T09:54:06.803Z,1018.92
2019-05-18T09:55:07.379Z,1019.01
2019-05-18T09:56:07.958Z,1019.05
2019-05-18T09:57:08.580Z,1018.99
2019-05-18T09:58:09.253Z,1018.99
2019-05-18T09:59:09.922Z,1019.02
2019-05-18T10:00:10.502Z,1019.15
2019-05-18T10:01:11.080Z,1019.13
2019-05-18T10:02:11.653Z,1019.14
2019-05-18T10:03:12.257Z,1019.12
2019-05-18T10:04:12.806Z,1019.10
2019-05-18T10:05:13.381Z,1019.20
2019-05-18T10:10:02.259Z,1019.23
2019-05-18T10:13:33.936Z,1019.18
2019-05-18T10:14:34.549Z,1019.30
2019-05-18T10:16:50.768Z,1019.28
2019-05-18T10:23:04.176Z,1019.23
2019-05-18T10:23:53.377Z,1019.30
2019-05-18T10:24:53.954Z,1019.33
2019-05-18T10:25:54.529Z,1019.33
2019-05-18T10:26:55.105Z,1019.29
2019-05-18T10:27:55.692Z,1019.25
2019-05-18T10:28:56.313Z,1019.26
2019-05-18T10:29:57.528Z,1019.33
2019-05-18T10:30:58.114Z,1019.25
2019-05-18T10:31:58.684Z,1019.22
2019-05-18T10:32:59.259Z,1019.28
2019-05-18T10:33:59.832Z,1019.29
2019-05-18T10:35:00.410Z,1019.26
2019-05-18T10:38:31.842Z,1019.30
2019-05-18T10:39:32.417Z,1019.28
2019-05-18T10:40:33.000Z,1019.36
2019-05-18T10:41:33.570Z,1019.27
2019-05-18T10:42:34.146Z,1019.29
2019-05-18T10:43:34.724Z,1019.38
2019-05-18T10:44:35.300Z,1019.36
2019-05-18T10:45:35.882Z,1019.28
2019-05-18T10:46:36.459Z,1019.41
2019-05-18T10:47:37.106Z,1019.37
2019-05-18T10:48:37.646Z,1019.41
2019-05-18T10:49:38.218Z,1019.45
2019-05-18T10:50:38.799Z,1019.41
2019-05-18T10:51:39.376Z,1019.44
2019-05-18T10:53:55.581Z,1019.43
2019-05-18T10:54:56.159Z,1019.51
2019-05-18T10:55:56.743Z,1019.47
2019-05-18T10:56:57.326Z,1019.57
2019-05-18T10:57:57.897Z,1019.53
2019-05-18T11:01:29.938Z,1019.52
2019-05-18T11:27:37.159Z,1019.44
2019-05-18T11:44:55.551Z,1019.31
2019-05-18T11:46:23.021Z,1019.30
2019-05-18T11:52:32.071Z,1019.34
2019-05-18T12:14:03.958Z,1019.34
2019-05-18T12:15:04.537Z,1019.37
2019-05-18T12:16:05.117Z,1019.41
2019-05-18T12:18:21.536Z,1019.41
2019-05-18T12:20:37.756Z,1019.42
2019-05-18T12:24:20.028Z,1019.41
2019-05-18T12:25:20.614Z,1019.46
2019-05-18T12:26:21.240Z,1019.43
2019-05-18T12:27:21.826Z,1019.37
2019-05-18T12:28:22.417Z,1019.50
2019-05-18T12:29:22.998Z,1019.31
2019-05-18T12:30:23.582Z,1019.33
2019-05-18T12:31:24.166Z,1019.33
2019-05-18T12:32:24.752Z,1019.36
2019-05-18T12:33:25.339Z,1019.33
2019-05-18T12:34:25.926Z,1019.37
2019-05-18T12:35:26.513Z,1019.30
2019-05-18T12:36:27.099Z,1019.40
2019-05-18T12:37:27.684Z,1019.40
2019-05-18T12:38:28.268Z,1019.42
2019-05-18T12:39:28.853Z,1019.42
2019-05-18T12:40:29.439Z,1019.37
2019-05-18T12:41:30.027Z,1019.31
2019-05-18T12:42:30.667Z,1019.27
2019-05-18T12:43:31.288Z,1019.40
2019-05-18T12:44:31.872Z,1019.28
2019-05-18T12:45:32.486Z,1019.23
2019-05-18T12:46:33.107Z,1019.32
2019-05-18T12:47:33.731Z,1019.27
2019-05-18T12:48:34.335Z,1019.28
2019-05-18T12:49:34.942Z,1019.21
2019-05-18T12:50:35.529Z,1019.30
2019-05-18T12:51:36.119Z,1019.26
2019-05-18T12:52:36.705Z,1019.26
2019-05-18T12:53:37.304Z,1019.26
2019-05-18T12:54:46.085Z,1019.32
2019-05-18T12:55:39.460Z,1019.32
2019-05-18T12:56:40.111Z,1019.29
2019-05-18T12:57:40.725Z,1019.35
2019-05-18T12:58:41.358Z,1019.31
2019-05-18T12:59:42.352Z,1019.27
2019-05-18T13:02:47.447Z,1019.41
2019-05-18T13:03:48.034Z,1019.34
2019-05-18T13:04:48.623Z,1019.44
2019-05-18T13:05:49.210Z,1019.43
2019-05-18T13:06:49.798Z,1019.41
2019-05-18T13:07:50.386Z,1019.34
2019-05-18T13:09:52.561Z,1019.36
2019-05-18T13:10:53.152Z,1019.37
2019-05-18T13:11:53.738Z,1019.26
2019-05-18T13:12:54.327Z,1019.29
2019-05-18T13:13:54.915Z,1019.37
2019-05-18T13:14:55.504Z,1019.27
2019-05-18T13:15:56.092Z,1019.35
2019-05-18T13:16:56.681Z,1019.37
2019-05-18T13:17:57.270Z,1019.32
2019-05-18T13:18:57.857Z,1019.39
2019-05-18T13:19:58.451Z,1019.35
2019-05-18T13:20:59.079Z,1019.29
2019-05-18T13:21:59.669Z,1019.29
2019-05-18T13:23:00.265Z,1019.24
2019-05-18T13:24:00.908Z,1019.33
2019-05-18T13:25:01.533Z,1019.27
2019-05-18T13:26:02.155Z,1019.19
2019-05-18T13:27:02.750Z,1019.21
2019-05-18T13:28:03.401Z,1019.28
2019-05-18T13:29:03.950Z,1019.31
2019-05-18T13:30:04.563Z,1019.29
2019-05-18T13:31:05.178Z,1019.27
2019-05-18T13:32:05.768Z,1019.26
2019-05-18T13:33:06.363Z,1019.19
2019-05-18T13:34:06.947Z,1019.28
2019-05-18T13:35:07.538Z,1019.13
2019-05-18T13:36:08.126Z,1019.22
2019-05-18T13:37:08.716Z,1019.11
2019-05-18T13:38:09.305Z,1019.09
2019-05-18T13:39:09.893Z,1019.14
2019-05-18T13:40:10.483Z,1019.10
2019-05-18T13:41:11.073Z,1019.15
2019-05-18T13:42:11.704Z,1019.18
2019-05-18T13:43:12.290Z,1019.28
2019-05-18T13:44:12.876Z,1019.22
2019-05-18T13:45:13.464Z,1019.17
2019-05-18T13:46:14.062Z,1019.18
2019-05-18T13:47:14.638Z,1019.11
2019-05-18T13:48:15.225Z,1019.21
2019-05-18T13:54:44.374Z,1019.20
2019-05-18T13:58:58.647Z,1019.27
2019-05-18T13:59:59.269Z,1019.14
2019-05-18T14:00:59.896Z,1019.26
2019-05-18T14:02:00.524Z,1019.22
2019-05-18T14:03:01.123Z,1019.23
2019-05-18T14:04:01.753Z,1019.27
2019-05-18T14:05:02.335Z,1019.22
2019-05-18T14:06:02.923Z,1019.36
2019-05-18T14:07:03.510Z,1019.33
2019-05-18T14:08:04.099Z,1019.26
2019-05-18T14:09:04.703Z,1019.26
2019-05-18T14:10:05.347Z,1019.24
2019-05-18T14:11:05.957Z,1019.20
2019-05-18T14:13:22.029Z,1019.20